Terminal Aerodrome Forecast
Issued by NWS

Home | Current Version | Previous Version | Text Only | Print | Product List | Glossary On
Versions: 1 2 3 4 5 6 7 8 9 10 11 12 13 14 15 16 17 18 19 20 21 22 23 24 25 26 27 28 29 30 31 32
000
FTUS44 KHGX 311120
TAFUTS
TAF
KUTS 311120Z 3112/0112 18003KT P6SM SCT018 SCT024 SCT030
      TEMPO 3112/3115 -SHRA BKN024
     FM311500 20007KT P6SM SCT035 SCT150
     FM312000 24008KT P6SM VCTS BKN050CB
      TEMPO 3122/0102 VRB10G25KT 4SM TSRA BKN035CB
     FM010200 VRB03KT P6SM VCSH SCT015 BKN050=

USA.gov is the U.S. government's official web portal to all federal, state and local government web resources and services.